sensor_id;sensor_type;location;lat;lon;timestamp;temperature;humidity
17639;DHT22;8938;53.546;9.954;2022-08-19T00:00:16;23.70;99.90
17639;DHT22;8938;53.546;9.954;2022-08-19T00:02:42;23.70;99.90
17639;DHT22;8938;53.546;9.954;2022-08-19T00:05:10;23.70;99.90
17639;DHT22;8938;53.546;9.954;2022-08-19T00:07:36;23.70;99.90
17639;DHT22;8938;53.546;9.954;2022-08-19T00:10:04;23.80;99.90
17639;DHT22;8938;53.546;9.954;2022-08-19T00:12:30;23.80;99.90
17639;DHT22;8938;53.546;9.954;2022-08-19T00:14:55;23.80;99.90
17639;DHT22;8938;53.546;9.954;2022-08-19T00:17:21;23.70;99.90
17639;DHT22;8938;53.546;9.954;2022-08-19T00:19:47;23.70;99.90
17639;DHT22;8938;53.546;9.954;2022-08-19T00:22:12;23.60;99.90
17639;DHT22;8938;53.546;9.954;2022-08-19T00:24:38;23.70;99.90
17639;DHT22;8938;53.546;9.954;2022-08-19T00:27:05;23.70;99.90
17639;DHT22;8938;53.546;9.954;2022-08-19T00:29:31;23.70;99.90
17639;DHT22;8938;53.546;9.954;2022-08-19T00:31:56;23.70;99.90
17639;DHT22;8938;53.546;9.954;2022-08-19T00:34:24;23.70;99.90
17639;DHT22;8938;53.546;9.954;2022-08-19T00:36:51;23.70;99.90
17639;DHT22;8938;53.546;9.954;2022-08-19T00:39:18;23.70;99.90
17639;DHT22;8938;53.546;9.954;2022-08-19T00:41:44;23.70;99.90
17639;DHT22;8938;53.546;9.954;2022-08-19T00:44:19;23.80;99.90
17639;DHT22;8938;53.546;9.954;2022-08-19T00:46:47;23.80;99.90
17639;DHT22;8938;53.546;9.954;2022-08-19T00:49:20;23.80;99.90
17639;DHT22;8938;53.546;9.954;2022-08-19T00:51:50;23.80;99.90
17639;DHT22;8938;53.546;9.954;2022-08-19T00:54:17;23.80;99.90
17639;DHT22;8938;53.546;9.954;2022-08-19T00:56:43;23.70;99.90
17639;DHT22;8938;53.546;9.954;2022-08-19T00:59:10;23.70;99.90
17639;DHT22;8938;53.546;9.954;2022-08-19T01:01:38;23.70;99.90
17639;DHT22;8938;53.546;9.954;2022-08-19T01:04:05;23.70;99.90
17639;DHT22;8938;53.546;9.954;2022-08-19T01:06:31;23.70;99.90
17639;DHT22;8938;53.546;9.954;2022-08-19T01:08:58;23.70;99.90
17639;DHT22;8938;53.546;9.954;2022-08-19T01:11:24;23.70;99.90
17639;DHT22;8938;53.546;9.954;2022-08-19T01:13:52;23.70;99.90
17639;DHT22;8938;53.546;9.954;2022-08-19T01:16:20;23.60;99.90
17639;DHT22;8938;53.546;9.954;2022-08-19T01:18:47;23.60;99.90
17639;DHT22;8938;53.546;9.954;2022-08-19T01:21:40;23.70;99.90
17639;DHT22;8938;53.546;9.954;2022-08-19T01:24:07;23.70;99.90
17639;DHT22;8938;53.546;9.954;2022-08-19T01:26:41;23.70;99.90
17639;DHT22;8938;53.546;9.954;2022-08-19T01:29:08;23.80;99.90
17639;DHT22;8938;53.546;9.954;2022-08-19T01:31:33;23.80;99.90
17639;DHT22;8938;53.546;9.954;2022-08-19T01:34:01;23.80;99.90
17639;DHT22;8938;53.546;9.954;2022-08-19T01:36:32;23.70;99.90
17639;DHT22;8938;53.546;9.954;2022-08-19T01:39:06;23.60;99.90
17639;DHT22;8938;53.546;9.954;2022-08-19T01:41:32;23.50;99.90
17639;DHT22;8938;53.546;9.954;2022-08-19T01:43:58;23.50;99.90
17639;DHT22;8938;53.546;9.954;2022-08-19T01:46:24;23.50;99.90
17639;DHT22;8938;53.546;9.954;2022-08-19T01:48:50;23.60;99.90
17639;DHT22;8938;53.546;9.954;2022-08-19T01:51:15;23.70;99.90
17639;DHT22;8938;53.546;9.954;2022-08-19T01:53:41;23.70;99.90
17639;DHT22;8938;53.546;9.954;2022-08-19T01:56:07;23.70;99.90
17639;DHT22;8938;53.546;9.954;2022-08-19T01:58:40;23.70;99.90
17639;DHT22;8938;53.546;9.954;2022-08-19T02:01:07;23.60;99.90
17639;DHT22;8938;53.546;9.954;2022-08-19T02:03:33;23.60;99.90
17639;DHT22;8938;53.546;9.954;2022-08-19T02:06:01;23.60;99.90
17639;DHT22;8938;53.546;9.954;2022-08-19T02:08:32;23.60;99.90
17639;DHT22;8938;53.546;9.954;2022-08-19T02:11:34;23.70;99.90
17639;DHT22;8938;53.546;9.954;2022-08-19T02:14:03;23.70;99.90
17639;DHT22;8938;53.546;9.954;2022-08-19T02:16:29;23.70;99.90
17639;DHT22;8938;53.546;9.954;2022-08-19T02:18:56;23.60;99.90
17639;DHT22;8938;53.546;9.954;2022-08-19T02:21:22;23.50;99.90
17639;DHT22;8938;53.546;9.954;2022-08-19T02:23:49;23.50;99.90
17639;DHT22;8938;53.546;9.954;2022-08-19T02:26:15;23.40;99.90
17639;DHT22;8938;53.546;9.954;2022-08-19T02:28:41;23.40;99.90
17639;DHT22;8938;53.546;9.954;2022-08-19T02:31:13;23.40;99.90
17639;DHT22;8938;53.546;9.954;2022-08-19T02:33:40;23.30;99.90
17639;DHT22;8938;53.546;9.954;2022-08-19T02:36:07;23.50;99.90
17639;DHT22;8938;53.546;9.954;2022-08-19T02:38:34;23.20;99.90
17639;DHT22;8938;53.546;9.954;2022-08-19T02:41:02;23.10;99.90
17639;DHT22;8938;53.546;9.954;2022-08-19T02:43:30;23.10;99.90
17639;DHT22;8938;53.546;9.954;2022-08-19T02:45:56;23.00;99.90
17639;DHT22;8938;53.546;9.954;2022-08-19T02:48:23;23.10;99.90
17639;DHT22;8938;53.546;9.954;2022-08-19T02:50:50;23.10;99.90
17639;DHT22;8938;53.546;9.954;2022-08-19T02:53:25;23.10;99.90
17639;DHT22;8938;53.546;9.954;2022-08-19T02:55:51;23.10;99.90
17639;DHT22;8938;53.546;9.954;2022-08-19T02:58:17;23.30;99.90
17639;DHT22;8938;53.546;9.954;2022-08-19T03:00:48;23.20;99.90
17639;DHT22;8938;53.546;9.954;2022-08-19T03:03:15;23.10;99.90
17639;DHT22;8938;53.546;9.954;2022-08-19T03:05:41;23.00;99.90
17639;DHT22;8938;53.546;9.954;2022-08-19T03:08:09;23.00;99.90
17639;DHT22;8938;53.546;9.954;2022-08-19T03:10:47;22.90;99.90
17639;DHT22;8938;53.546;9.954;2022-08-19T03:13:15;22.80;99.90
17639;DHT22;8938;53.546;9.954;2022-08-19T03:16:13;22.80;99.90
17639;DHT22;8938;53.546;9.954;2022-08-19T03:18:39;22.80;99.90
17639;DHT22;8938;53.546;9.954;2022-08-19T03:21:05;22.90;99.90
17639;DHT22;8938;53.546;9.954;2022-08-19T03:23:31;23.00;99.90
17639;DHT22;8938;53.546;9.954;2022-08-19T03:25:57;23.10;99.90
17639;DHT22;8938;53.546;9.954;2022-08-19T03:28:23;23.00;99.90
17639;DHT22;8938;53.546;9.954;2022-08-19T03:31:16;22.90;99.90
17639;DHT22;8938;53.546;9.954;2022-08-19T03:33:42;22.90;99.90
17639;DHT22;8938;53.546;9.954;2022-08-19T03:36:17;22.80;99.90
17639;DHT22;8938;53.546;9.954;2022-08-19T03:38:47;22.70;99.90
17639;DHT22;8938;53.546;9.954;2022-08-19T03:41:16;22.80;99.90
17639;DHT22;8938;53.546;9.954;2022-08-19T03:43:42;22.80;99.90
17639;DHT22;8938;53.546;9.954;2022-08-19T03:46:14;22.90;99.90
17639;DHT22;8938;53.546;9.954;2022-08-19T03:48:41;22.80;99.90
17639;DHT22;8938;53.546;9.954;2022-08-19T03:51:14;22.80;99.90
17639;DHT22;8938;53.546;9.954;2022-08-19T03:53:40;22.80;99.90
17639;DHT22;8938;53.546;9.954;2022-08-19T03:56:09;22.80;99.90
17639;DHT22;8938;53.546;9.954;2022-08-19T03:58:35;22.80;99.90
17639;DHT22;8938;53.546;9.954;2022-08-19T04:01:07;22.80;99.90
17639;DHT22;8938;53.546;9.954;2022-08-19T04:03:33;22.80;99.90
17639;DHT22;8938;53.546;9.954;2022-08-19T04:06:10;22.70;99.90
17639;DHT22;8938;53.546;9.954;2022-08-19T04:08:36;22.70;99.90
17639;DHT22;8938;53.546;9.954;2022-08-19T04:11:16;22.70;99.90
17639;DHT22;8938;53.546;9.954;2022-08-19T04:13:43;22.60;99.90
17639;DHT22;8938;53.546;9.954;2022-08-19T04:16:10;22.60;99.90
17639;DHT22;8938;53.546;9.954;2022-08-19T04:18:38;22.60;99.90
17639;DHT22;8938;53.546;9.954;2022-08-19T04:21:04;22.60;99.90
17639;DHT22;8938;53.546;9.954;2022-08-19T04:23:31;22.70;99.90
17639;DHT22;8938;53.546;9.954;2022-08-19T04:25:57;22.70;99.90
17639;DHT22;8938;53.546;9.954;2022-08-19T04:28:23;22.70;99.90
17639;DHT22;8938;53.546;9.954;2022-08-19T04:30:52;22.80;99.90
17639;DHT22;8938;53.546;9.954;2022-08-19T04:33:21;22.90;99.90
17639;DHT22;8938;53.546;9.954;2022-08-19T04:35:49;22.90;99.90
17639;DHT22;8938;53.546;9.954;2022-08-19T04:38:17;22.90;99.90
17639;DHT22;8938;53.546;9.954;2022-08-19T04:40:46;22.80;99.90
17639;DHT22;8938;53.546;9.954;2022-08-19T04:43:31;22.80;99.90
17639;DHT22;8938;53.546;9.954;2022-08-19T04:45:57;22.70;99.90
17639;DHT22;8938;53.546;9.954;2022-08-19T04:48:23;22.70;99.90
17639;DHT22;8938;53.546;9.954;2022-08-19T04:50:53;22.70;99.90
17639;DHT22;8938;53.546;9.954;2022-08-19T04:53:26;22.70;99.90
17639;DHT22;8938;53.546;9.954;2022-08-19T04:55:55;22.70;99.90
17639;DHT22;8938;53.546;9.954;2022-08-19T04:58:21;22.70;99.90
17639;DHT22;8938;53.546;9.954;2022-08-19T05:00:47;22.70;99.90
17639;DHT22;8938;53.546;9.954;2022-08-19T05:03:13;22.60;99.90
17639;DHT22;8938;53.546;9.954;2022-08-19T05:05:41;22.70;99.90
17639;DHT22;8938;53.546;9.954;2022-08-19T05:08:07;22.60;99.90
17639;DHT22;8938;53.546;9.954;2022-08-19T05:10:36;22.60;99.90
17639;DHT22;8938;53.546;9.954;2022-08-19T05:13:02;22.70;99.90
17639;DHT22;8938;53.546;9.954;2022-08-19T05:15:28;22.70;99.90
17639;DHT22;8938;53.546;9.954;2022-08-19T05:18:00;22.80;99.90
17639;DHT22;8938;53.546;9.954;2022-08-19T05:20:45;22.70;99.90
17639;DHT22;8938;53.546;9.954;2022-08-19T05:23:29;22.90;99.90
17639;DHT22;8938;53.546;9.954;2022-08-19T05:25:56;22.80;99.90
17639;DHT22;8938;53.546;9.954;2022-08-19T05:28:21;22.80;99.90
17639;DHT22;8938;53.546;9.954;2022-08-19T05:30:47;22.70;99.90
17639;DHT22;8938;53.546;9.954;2022-08-19T05:33:13;22.70;99.90
17639;DHT22;8938;53.546;9.954;2022-08-19T05:35:39;22.90;99.90
17639;DHT22;8938;53.546;9.954;2022-08-19T05:38:07;22.90;99.90
17639;DHT22;8938;53.546;9.954;2022-08-19T05:40:37;22.90;99.90
17639;DHT22;8938;53.546;9.954;2022-08-19T05:43:05;22.80;99.90
17639;DHT22;8938;53.546;9.954;2022-08-19T05:45:31;22.70;99.90
17639;DHT22;8938;53.546;9.954;2022-08-19T05:47:56;22.70;99.90
17639;DHT22;8938;53.546;9.954;2022-08-19T05:50:24;22.80;99.90
17639;DHT22;8938;53.546;9.954;2022-08-19T05:52:51;22.70;99.90
17639;DHT22;8938;53.546;9.954;2022-08-19T05:55:16;22.80;99.90
17639;DHT22;8938;53.546;9.954;2022-08-19T05:57:42;23.00;99.90
17639;DHT22;8938;53.546;9.954;2022-08-19T06:00:08;23.00;99.90
17639;DHT22;8938;53.546;9.954;2022-08-19T06:02:36;23.10;99.90
17639;DHT22;8938;53.546;9.954;2022-08-19T06:05:03;23.10;99.90
17639;DHT22;8938;53.546;9.954;2022-08-19T06:07:29;23.10;99.90
17639;DHT22;8938;53.546;9.954;2022-08-19T06:09:55;23.10;99.90
17639;DHT22;8938;53.546;9.954;2022-08-19T06:12:20;23.00;99.90
17639;DHT22;8938;53.546;9.954;2022-08-19T06:14:51;23.00;99.90
17639;DHT22;8938;53.546;9.954;2022-08-19T06:17:19;23.00;99.90
17639;DHT22;8938;53.546;9.954;2022-08-19T06:19:46;23.00;99.90
17639;DHT22;8938;53.546;9.954;2022-08-19T06:22:12;23.00;99.90
17639;DHT22;8938;53.546;9.954;2022-08-19T06:24:38;23.00;99.90
17639;DHT22;8938;53.546;9.954;2022-08-19T06:27:04;23.00;99.90
17639;DHT22;8938;53.546;9.954;2022-08-19T06:29:31;23.00;99.90
17639;DHT22;8938;53.546;9.954;2022-08-19T06:31:59;23.10;99.90
17639;DHT22;8938;53.546;9.954;2022-08-19T06:34:27;23.00;99.90
17639;DHT22;8938;53.546;9.954;2022-08-19T06:36:53;23.00;99.90
17639;DHT22;8938;53.546;9.954;2022-08-19T06:39:25;23.00;99.90
17639;DHT22;8938;53.546;9.954;2022-08-19T06:41:55;23.00;99.90
17639;DHT22;8938;53.546;9.954;2022-08-19T06:44:22;22.90;99.90
17639;DHT22;8938;53.546;9.954;2022-08-19T06:46:48;23.00;99.90
17639;DHT22;8938;53.546;9.954;2022-08-19T06:49:16;23.00;99.90
17639;DHT22;8938;53.546;9.954;2022-08-19T06:51:43;23.00;99.90
17639;DHT22;8938;53.546;9.954;2022-08-19T06:54:10;23.00;99.90
17639;DHT22;8938;53.546;9.954;2022-08-19T06:56:36;22.90;99.90
17639;DHT22;8938;53.546;9.954;2022-08-19T06:59:05;22.90;99.90
17639;DHT22;8938;53.546;9.954;2022-08-19T07:01:39;23.00;99.90
17639;DHT22;8938;53.546;9.954;2022-08-19T07:04:07;22.90;99.90
17639;DHT22;8938;53.546;9.954;2022-08-19T07:06:34;23.00;99.90
17639;DHT22;8938;53.546;9.954;2022-08-19T07:09:00;23.00;99.90
17639;DHT22;8938;53.546;9.954;2022-08-19T07:11:26;23.00;99.90
17639;DHT22;8938;53.546;9.954;2022-08-19T07:13:52;23.00;99.90
17639;DHT22;8938;53.546;9.954;2022-08-19T07:16:19;23.10;99.90
17639;DHT22;8938;53.546;9.954;2022-08-19T07:18:50;23.20;99.90
17639;DHT22;8938;53.546;9.954;2022-08-19T07:21:22;23.10;99.90
17639;DHT22;8938;53.546;9.954;2022-08-19T07:23:48;23.10;99.90
17639;DHT22;8938;53.546;9.954;2022-08-19T07:26:23;23.10;99.90
17639;DHT22;8938;53.546;9.954;2022-08-19T07:28:50;23.10;99.90
17639;DHT22;8938;53.546;9.954;2022-08-19T07:31:19;23.10;99.90
17639;DHT22;8938;53.546;9.954;2022-08-19T07:33:46;23.30;99.90
17639;DHT22;8938;53.546;9.954;2022-08-19T07:36:13;23.40;99.90
17639;DHT22;8938;53.546;9.954;2022-08-19T07:38:43;23.50;99.90
17639;DHT22;8938;53.546;9.954;2022-08-19T07:41:12;23.40;99.90
17639;DHT22;8938;53.546;9.954;2022-08-19T07:43:39;23.40;99.90
17639;DHT22;8938;53.546;9.954;2022-08-19T07:46:05;23.30;99.90
17639;DHT22;8938;53.546;9.954;2022-08-19T07:48:30;23.30;99.90
17639;DHT22;8938;53.546;9.954;2022-08-19T07:50:59;23.40;99.90
17639;DHT22;8938;53.546;9.954;2022-08-19T07:53:28;23.40;99.90
17639;DHT22;8938;53.546;9.954;2022-08-19T07:55:54;23.40;99.90
17639;DHT22;8938;53.546;9.954;2022-08-19T07:58:22;23.30;99.90
17639;DHT22;8938;53.546;9.954;2022-08-19T08:00:49;23.30;99.90
17639;DHT22;8938;53.546;9.954;2022-08-19T08:03:18;23.30;99.90
17639;DHT22;8938;53.546;9.954;2022-08-19T08:05:44;23.30;99.90
17639;DHT22;8938;53.546;9.954;2022-08-19T08:08:29;23.30;99.90
17639;DHT22;8938;53.546;9.954;2022-08-19T08:11:11;23.40;99.90
17639;DHT22;8938;53.546;9.954;2022-08-19T08:13:37;23.30;99.90
17639;DHT22;8938;53.546;9.954;2022-08-19T08:16:02;23.30;99.90
17639;DHT22;8938;53.546;9.954;2022-08-19T08:18:29;23.40;99.90
17639;DHT22;8938;53.546;9.954;2022-08-19T08:20:55;23.50;99.90
17639;DHT22;8938;53.546;9.954;2022-08-19T08:23:22;23.60;99.90
17639;DHT22;8938;53.546;9.954;2022-08-19T08:25:50;23.60;99.90
17639;DHT22;8938;53.546;9.954;2022-08-19T08:28:19;23.50;99.90
17639;DHT22;8938;53.546;9.954;2022-08-19T08:30:47;23.50;99.90
17639;DHT22;8938;53.546;9.954;2022-08-19T08:33:14;23.50;99.90
17639;DHT22;8938;53.546;9.954;2022-08-19T08:35:42;23.50;99.90
17639;DHT22;8938;53.546;9.954;2022-08-19T08:38:08;23.60;99.90
17639;DHT22;8938;53.546;9.954;2022-08-19T08:40:53;23.60;99.90
17639;DHT22;8938;53.546;9.954;2022-08-19T08:43:30;23.60;99.90
17639;DHT22;8938;53.546;9.954;2022-08-19T08:46:16;23.50;99.90
17639;DHT22;8938;53.546;9.954;2022-08-19T08:51:24;23.60;99.90
17639;DHT22;8938;53.546;9.954;2022-08-19T08:53:52;23.80;99.90
17639;DHT22;8938;53.546;9.954;2022-08-19T08:56:18;23.80;99.90
17639;DHT22;8938;53.546;9.954;2022-08-19T09:01:43;23.90;99.90
17639;DHT22;8938;53.546;9.954;2022-08-19T09:04:10;23.90;99.90
17639;DHT22;8938;53.546;9.954;2022-08-19T09:06:44;23.90;99.90
17639;DHT22;8938;53.546;9.954;2022-08-19T09:09:32;23.90;99.90
17639;DHT22;8938;53.546;9.954;2022-08-19T09:14:57;23.90;99.90
17639;DHT22;8938;53.546;9.954;2022-08-19T09:17:28;23.90;99.90
17639;DHT22;8938;53.546;9.954;2022-08-19T09:20:20;24.00;99.90
17639;DHT22;8938;53.546;9.954;2022-08-19T09:22:46;24.10;99.90
17639;DHT22;8938;53.546;9.954;2022-08-19T09:25:17;24.10;99.90
17639;DHT22;8938;53.546;9.954;2022-08-19T09:27:43;24.20;99.90
17639;DHT22;8938;53.546;9.954;2022-08-19T09:30:22;24.20;99.90
17639;DHT22;8938;53.546;9.954;2022-08-19T09:32:49;24.10;99.90
17639;DHT22;8938;53.546;9.954;2022-08-19T09:35:19;24.10;99.90
17639;DHT22;8938;53.546;9.954;2022-08-19T09:37:47;24.10;99.90
17639;DHT22;8938;53.546;9.954;2022-08-19T09:40:14;24.10;99.90
17639;DHT22;8938;53.546;9.954;2022-08-19T09:42:39;24.10;99.90
17639;DHT22;8938;53.546;9.954;2022-08-19T09:45:05;24.00;99.90
17639;DHT22;8938;53.546;9.954;2022-08-19T09:47:31;24.10;99.90
17639;DHT22;8938;53.546;9.954;2022-08-19T09:50:01;24.10;99.90
17639;DHT22;8938;53.546;9.954;2022-08-19T09:52:26;24.20;99.90
17639;DHT22;8938;53.546;9.954;2022-08-19T09:54:52;24.30;99.90
17639;DHT22;8938;53.546;9.954;2022-08-19T09:57:18;24.30;99.90
17639;DHT22;8938;53.546;9.954;2022-08-19T09:59:44;24.40;99.90
17639;DHT22;8938;53.546;9.954;2022-08-19T10:02:10;24.30;99.90
17639;DHT22;8938;53.546;9.954;2022-08-19T10:04:36;24.30;99.90
17639;DHT22;8938;53.546;9.954;2022-08-19T10:07:20;24.30;99.90
17639;DHT22;8938;53.546;9.954;2022-08-19T10:09:45;24.30;99.90
17639;DHT22;8938;53.546;9.954;2022-08-19T10:12:12;24.20;99.90
17639;DHT22;8938;53.546;9.954;2022-08-19T10:14:37;24.20;99.90
17639;DHT22;8938;53.546;9.954;2022-08-19T10:17:04;24.20;99.90
17639;DHT22;8938;53.546;9.954;2022-08-19T10:19:29;24.20;99.90
17639;DHT22;8938;53.546;9.954;2022-08-19T10:22:03;24.10;99.90
17639;DHT22;8938;53.546;9.954;2022-08-19T10:24:29;24.20;99.90
17639;DHT22;8938;53.546;9.954;2022-08-19T10:26:56;24.20;99.90
17639;DHT22;8938;53.546;9.954;2022-08-19T10:29:22;24.30;99.90
17639;DHT22;8938;53.546;9.954;2022-08-19T10:31:48;24.30;99.90
17639;DHT22;8938;53.546;9.954;2022-08-19T10:34:13;24.40;99.90
17639;DHT22;8938;53.546;9.954;2022-08-19T10:36:39;24.30;99.90
17639;DHT22;8938;53.546;9.954;2022-08-19T10:39:09;24.40;99.90
17639;DHT22;8938;53.546;9.954;2022-08-19T10:41:37;24.30;99.90
17639;DHT22;8938;53.546;9.954;2022-08-19T10:44:11;24.20;99.90
17639;DHT22;8938;53.546;9.954;2022-08-19T10:46:41;24.20;99.90
17639;DHT22;8938;53.546;9.954;2022-08-19T10:49:09;24.10;99.90
17639;DHT22;8938;53.546;9.954;2022-08-19T10:51:37;24.10;99.90
17639;DHT22;8938;53.546;9.954;2022-08-19T10:54:22;24.00;99.90
17639;DHT22;8938;53.546;9.954;2022-08-19T10:56:47;23.90;99.90
17639;DHT22;8938;53.546;9.954;2022-08-19T10:59:22;24.00;99.90
17639;DHT22;8938;53.546;9.954;2022-08-19T11:01:48;24.00;99.90
17639;DHT22;8938;53.546;9.954;2022-08-19T11:04:14;24.00;99.90
17639;DHT22;8938;53.546;9.954;2022-08-19T11:06:43;24.20;99.90
17639;DHT22;8938;53.546;9.954;2022-08-19T11:09:10;24.20;99.90
17639;DHT22;8938;53.546;9.954;2022-08-19T11:11:37;24.30;99.90
17639;DHT22;8938;53.546;9.954;2022-08-19T11:14:11;24.20;99.90
17639;DHT22;8938;53.546;9.954;2022-08-19T11:16:37;24.30;99.90
17639;DHT22;8938;53.546;9.954;2022-08-19T11:19:05;24.50;99.90
17639;DHT22;8938;53.546;9.954;2022-08-19T11:21:35;24.60;99.90
17639;DHT22;8938;53.546;9.954;2022-08-19T11:24:03;24.70;99.90
17639;DHT22;8938;53.546;9.954;2022-08-19T11:26:32;24.80;99.90
17639;DHT22;8938;53.546;9.954;2022-08-19T11:28:58;24.90;99.90
17639;DHT22;8938;53.546;9.954;2022-08-19T11:31:27;25.10;99.90
17639;DHT22;8938;53.546;9.954;2022-08-19T11:33:55;25.20;99.90
17639;DHT22;8938;53.546;9.954;2022-08-19T11:36:21;25.30;99.90
17639;DHT22;8938;53.546;9.954;2022-08-19T11:38:50;25.20;99.90
17639;DHT22;8938;53.546;9.954;2022-08-19T11:41:17;25.30;99.90
17639;DHT22;8938;53.546;9.954;2022-08-19T11:43:44;25.40;99.90
17639;DHT22;8938;53.546;9.954;2022-08-19T11:46:12;25.40;99.90
17639;DHT22;8938;53.546;9.954;2022-08-19T11:48:39;25.50;99.90
17639;DHT22;8938;53.546;9.954;2022-08-19T11:51:07;25.60;99.90
17639;DHT22;8938;53.546;9.954;2022-08-19T11:53:35;25.60;99.90
17639;DHT22;8938;53.546;9.954;2022-08-19T11:56:01;25.60;99.90
17639;DHT22;8938;53.546;9.954;2022-08-19T11:58:26;25.50;99.90
17639;DHT22;8938;53.546;9.954;2022-08-19T12:00:52;25.40;99.90
17639;DHT22;8938;53.546;9.954;2022-08-19T12:03:18;25.40;99.90
17639;DHT22;8938;53.546;9.954;2022-08-19T12:05:45;25.30;99.90
17639;DHT22;8938;53.546;9.954;2022-08-19T12:08:11;25.20;99.90
17639;DHT22;8938;53.546;9.954;2022-08-19T12:10:38;25.20;99.90
17639;DHT22;8938;53.546;9.954;2022-08-19T12:13:04;25.10;99.90
17639;DHT22;8938;53.546;9.954;2022-08-19T12:15:30;25.20;99.90
17639;DHT22;8938;53.546;9.954;2022-08-19T12:17:57;25.30;99.90
17639;DHT22;8938;53.546;9.954;2022-08-19T12:20:23;25.40;99.90
17639;DHT22;8938;53.546;9.954;2022-08-19T12:22:50;25.50;99.90
17639;DHT22;8938;53.546;9.954;2022-08-19T12:25:16;25.70;99.90
17639;DHT22;8938;53.546;9.954;2022-08-19T12:27:42;25.90;99.90
17639;DHT22;8938;53.546;9.954;2022-08-19T12:30:10;26.10;99.90
17639;DHT22;8938;53.546;9.954;2022-08-19T12:32:37;26.20;99.90
17639;DHT22;8938;53.546;9.954;2022-08-19T12:35:03;26.40;99.90
17639;DHT22;8938;53.546;9.954;2022-08-19T12:37:29;26.40;99.90
17639;DHT22;8938;53.546;9.954;2022-08-19T12:39:56;26.60;99.90
17639;DHT22;8938;53.546;9.954;2022-08-19T12:42:21;26.80;99.90
17639;DHT22;8938;53.546;9.954;2022-08-19T12:44:47;26.90;99.90
17639;DHT22;8938;53.546;9.954;2022-08-19T12:47:13;27.00;99.90
17639;DHT22;8938;53.546;9.954;2022-08-19T12:49:40;27.10;99.90
17639;DHT22;8938;53.546;9.954;2022-08-19T12:52:07;27.20;99.90
17639;DHT22;8938;53.546;9.954;2022-08-19T12:54:34;27.30;99.90
17639;DHT22;8938;53.546;9.954;2022-08-19T12:57:00;27.40;99.90
17639;DHT22;8938;53.546;9.954;2022-08-19T12:59:26;27.40;99.90
17639;DHT22;8938;53.546;9.954;2022-08-19T13:01:52;27.50;99.90
17639;DHT22;8938;53.546;9.954;2022-08-19T13:04:18;27.40;99.90
17639;DHT22;8938;53.546;9.954;2022-08-19T13:06:44;27.40;99.90
17639;DHT22;8938;53.546;9.954;2022-08-19T13:09:09;27.40;99.90
17639;DHT22;8938;53.546;9.954;2022-08-19T13:11:36;27.30;99.90
17639;DHT22;8938;53.546;9.954;2022-08-19T13:14:03;27.30;99.90
17639;DHT22;8938;53.546;9.954;2022-08-19T13:16:29;27.20;99.90
17639;DHT22;8938;53.546;9.954;2022-08-19T13:18:56;27.10;99.90
17639;DHT22;8938;53.546;9.954;2022-08-19T13:21:26;27.10;99.90
17639;DHT22;8938;53.546;9.954;2022-08-19T13:23:53;27.00;99.90
17639;DHT22;8938;53.546;9.954;2022-08-19T13:26:20;26.90;99.90
17639;DHT22;8938;53.546;9.954;2022-08-19T13:28:46;27.00;99.90
17639;DHT22;8938;53.546;9.954;2022-08-19T13:31:33;27.00;99.90
17639;DHT22;8938;53.546;9.954;2022-08-19T13:34:24;27.00;99.90
17639;DHT22;8938;53.546;9.954;2022-08-19T13:36:52;27.00;99.90
17639;DHT22;8938;53.546;9.954;2022-08-19T13:39:18;27.00;99.90
17639;DHT22;8938;53.546;9.954;2022-08-19T13:41:46;27.00;99.90
17639;DHT22;8938;53.546;9.954;2022-08-19T13:44:16;27.10;99.90
17639;DHT22;8938;53.546;9.954;2022-08-19T13:46:44;27.20;99.90
17639;DHT22;8938;53.546;9.954;2022-08-19T13:49:11;27.20;99.90
17639;DHT22;8938;53.546;9.954;2022-08-19T13:51:38;27.20;99.90
17639;DHT22;8938;53.546;9.954;2022-08-19T13:54:06;27.10;99.90
17639;DHT22;8938;53.546;9.954;2022-08-19T13:56:31;27.10;99.90
17639;DHT22;8938;53.546;9.954;2022-08-19T13:58:57;27.10;99.90
17639;DHT22;8938;53.546;9.954;2022-08-19T14:01:23;27.00;99.90
17639;DHT22;8938;53.546;9.954;2022-08-19T14:03:49;27.00;99.90
17639;DHT22;8938;53.546;9.954;2022-08-19T14:06:15;27.10;99.90
17639;DHT22;8938;53.546;9.954;2022-08-19T14:08:40;27.20;99.90
17639;DHT22;8938;53.546;9.954;2022-08-19T14:11:07;27.20;99.90
17639;DHT22;8938;53.546;9.954;2022-08-19T14:13:33;27.20;99.90
17639;DHT22;8938;53.546;9.954;2022-08-19T14:15:59;27.20;99.90
17639;DHT22;8938;53.546;9.954;2022-08-19T14:18:25;27.20;99.90
17639;DHT22;8938;53.546;9.954;2022-08-19T14:20:51;27.00;99.90
17639;DHT22;8938;53.546;9.954;2022-08-19T14:23:17;27.00;99.90
17639;DHT22;8938;53.546;9.954;2022-08-19T14:25:43;27.00;99.90
17639;DHT22;8938;53.546;9.954;2022-08-19T14:28:10;27.00;99.90
17639;DHT22;8938;53.546;9.954;2022-08-19T14:30:36;27.00;99.90
17639;DHT22;8938;53.546;9.954;2022-08-19T14:33:04;27.10;99.90
17639;DHT22;8938;53.546;9.954;2022-08-19T14:35:31;27.30;99.90
17639;DHT22;8938;53.546;9.954;2022-08-19T14:38:00;27.30;99.90
17639;DHT22;8938;53.546;9.954;2022-08-19T14:40:27;27.40;99.90
17639;DHT22;8938;53.546;9.954;2022-08-19T14:43:02;27.40;99.90
17639;DHT22;8938;53.546;9.954;2022-08-19T14:45:32;27.50;99.90
17639;DHT22;8938;53.546;9.954;2022-08-19T14:47:58;27.50;99.90
17639;DHT22;8938;53.546;9.954;2022-08-19T14:50:25;27.60;99.90
17639;DHT22;8938;53.546;9.954;2022-08-19T14:52:59;27.60;99.90
17639;DHT22;8938;53.546;9.954;2022-08-19T14:55:25;27.60;99.90
17639;DHT22;8938;53.546;9.954;2022-08-19T14:57:50;27.60;99.90
17639;DHT22;8938;53.546;9.954;2022-08-19T15:00:16;27.60;99.90
17639;DHT22;8938;53.546;9.954;2022-08-19T15:02:42;27.40;99.90
17639;DHT22;8938;53.546;9.954;2022-08-19T15:05:11;27.40;99.90
17639;DHT22;8938;53.546;9.954;2022-08-19T15:07:38;27.30;99.90
17639;DHT22;8938;53.546;9.954;2022-08-19T15:10:05;27.40;99.90
17639;DHT22;8938;53.546;9.954;2022-08-19T15:12:33;27.30;99.90
17639;DHT22;8938;53.546;9.954;2022-08-19T15:14:59;27.40;99.90
17639;DHT22;8938;53.546;9.954;2022-08-19T15:17:25;27.40;99.90
17639;DHT22;8938;53.546;9.954;2022-08-19T15:19:50;27.40;99.90
17639;DHT22;8938;53.546;9.954;2022-08-19T15:22:16;27.40;99.90
17639;DHT22;8938;53.546;9.954;2022-08-19T15:24:42;27.40;99.90
17639;DHT22;8938;53.546;9.954;2022-08-19T15:27:11;27.50;99.90
17639;DHT22;8938;53.546;9.954;2022-08-19T15:29:37;27.60;99.90
17639;DHT22;8938;53.546;9.954;2022-08-19T15:32:02;27.70;99.90
17639;DHT22;8938;53.546;9.954;2022-08-19T15:34:28;27.80;99.90
17639;DHT22;8938;53.546;9.954;2022-08-19T15:36:55;27.80;99.90
17639;DHT22;8938;53.546;9.954;2022-08-19T15:39:23;27.80;99.90
17639;DHT22;8938;53.546;9.954;2022-08-19T15:41:48;27.90;99.90
17639;DHT22;8938;53.546;9.954;2022-08-19T15:44:16;27.90;99.90
17639;DHT22;8938;53.546;9.954;2022-08-19T15:46:44;27.90;99.90
17639;DHT22;8938;53.546;9.954;2022-08-19T15:49:11;27.90;99.90
17639;DHT22;8938;53.546;9.954;2022-08-19T15:51:39;28.00;99.90
17639;DHT22;8938;53.546;9.954;2022-08-19T15:54:10;28.00;99.90
17639;DHT22;8938;53.546;9.954;2022-08-19T15:56:36;28.10;99.90
17639;DHT22;8938;53.546;9.954;2022-08-19T15:59:20;28.10;99.90